sensor_id;sensor_type;location;lat;lon;timestamp;P1;durP1;ratioP1;P2;durP2;ratioP2
58518;SDS011;44310;48.106;12.008;2023-01-10T00:00:53;7.80;;;1.73;;
58518;SDS011;44310;48.106;12.008;2023-01-10T00:03:20;10.45;;;2.30;;
58518;SDS011;44310;48.106;12.008;2023-01-10T00:05:47;9.10;;;1.95;;
58518;SDS011;44310;48.106;12.008;2023-01-10T00:08:15;12.95;;;2.50;;
58518;SDS011;44310;48.106;12.008;2023-01-10T00:10:42;5.22;;;1.30;;
58518;SDS011;44310;48.106;12.008;2023-01-10T00:13:13;5.63;;;1.30;;
58518;SDS011;44310;48.106;12.008;2023-01-10T00:15:51;4.25;;;1.20;;
58518;SDS011;44310;48.106;12.008;2023-01-10T00:18:20;3.50;;;1.23;;
58518;SDS011;44310;48.106;12.008;2023-01-10T00:20:47;6.95;;;1.48;;
58518;SDS011;44310;48.106;12.008;2023-01-10T00:23:15;3.93;;;1.17;;
58518;SDS011;44310;48.106;12.008;2023-01-10T00:25:43;6.93;;;1.90;;
58518;SDS011;44310;48.106;12.008;2023-01-10T00:28:11;21.13;;;4.45;;
58518;SDS011;44310;48.106;12.008;2023-01-10T00:30:50;7.07;;;1.90;;
58518;SDS011;44310;48.106;12.008;2023-01-10T00:33:27;5.60;;;1.50;;
58518;SDS011;44310;48.106;12.008;2023-01-10T00:35:55;6.05;;;1.65;;
58518;SDS011;44310;48.106;12.008;2023-01-10T00:38:23;6.95;;;1.50;;
58518;SDS011;44310;48.106;12.008;2023-01-10T00:40:50;6.87;;;1.70;;
58518;SDS011;44310;48.106;12.008;2023-01-10T00:43:17;10.05;;;2.47;;
58518;SDS011;44310;48.106;12.008;2023-01-10T00:46:03;11.82;;;2.42;;
58518;SDS011;44310;48.106;12.008;2023-01-10T00:48:30;6.93;;;1.58;;
58518;SDS011;44310;48.106;12.008;2023-01-10T00:50:57;7.13;;;1.55;;
58518;SDS011;44310;48.106;12.008;2023-01-10T00:53:24;6.05;;;1.42;;
58518;SDS011;44310;48.106;12.008;2023-01-10T00:55:53;5.72;;;1.48;;
58518;SDS011;44310;48.106;12.008;2023-01-10T00:58:21;4.90;;;1.50;;
58518;SDS011;44310;48.106;12.008;2023-01-10T01:00:48;10.97;;;2.20;;
58518;SDS011;44310;48.106;12.008;2023-01-10T01:03:16;7.18;;;1.70;;
58518;SDS011;44310;48.106;12.008;2023-01-10T01:05:45;4.15;;;1.38;;
58518;SDS011;44310;48.106;12.008;2023-01-10T01:08:14;3.90;;;1.45;;
58518;SDS011;44310;48.106;12.008;2023-01-10T01:10:43;3.80;;;1.20;;
58518;SDS011;44310;48.106;12.008;2023-01-10T01:13:17;5.72;;;1.40;;
58518;SDS011;44310;48.106;12.008;2023-01-10T01:15:46;6.55;;;1.48;;
58518;SDS011;44310;48.106;12.008;2023-01-10T01:18:16;4.73;;;1.20;;
58518;SDS011;44310;48.106;12.008;2023-01-10T01:20:47;5.00;;;1.27;;
58518;SDS011;44310;48.106;12.008;2023-01-10T01:23:19;3.95;;;1.10;;
58518;SDS011;44310;48.106;12.008;2023-01-10T01:25:49;3.67;;;1.10;;
58518;SDS011;44310;48.106;12.008;2023-01-10T01:28:17;3.88;;;1.10;;
58518;SDS011;44310;48.106;12.008;2023-01-10T01:30:44;3.97;;;1.33;;
58518;SDS011;44310;48.106;12.008;2023-01-10T01:33:12;5.03;;;1.20;;
58518;SDS011;44310;48.106;12.008;2023-01-10T01:35:43;5.10;;;1.50;;
58518;SDS011;44310;48.106;12.008;2023-01-10T01:38:11;7.00;;;1.45;;
58518;SDS011;44310;48.106;12.008;2023-01-10T01:40:39;4.85;;;1.30;;
58518;SDS011;44310;48.106;12.008;2023-01-10T01:43:14;7.53;;;1.75;;
58518;SDS011;44310;48.106;12.008;2023-01-10T01:45:47;7.33;;;1.90;;
58518;SDS011;44310;48.106;12.008;2023-01-10T01:50:56;6.03;;;1.58;;
58518;SDS011;44310;48.106;12.008;2023-01-10T01:53:36;4.10;;;1.20;;
58518;SDS011;44310;48.106;12.008;2023-01-10T01:56:29;5.03;;;1.38;;
58518;SDS011;44310;48.106;12.008;2023-01-10T01:59:00;7.07;;;1.80;;
58518;SDS011;44310;48.106;12.008;2023-01-10T02:01:32;9.37;;;2.07;;
58518;SDS011;44310;48.106;12.008;2023-01-10T02:04:13;7.95;;;1.80;;
58518;SDS011;44310;48.106;12.008;2023-01-10T02:06:45;6.78;;;1.50;;
58518;SDS011;44310;48.106;12.008;2023-01-10T02:11:45;4.03;;;1.30;;
58518;SDS011;44310;48.106;12.008;2023-01-10T02:14:12;5.13;;;1.38;;
58518;SDS011;44310;48.106;12.008;2023-01-10T02:16:40;6.50;;;1.50;;
58518;SDS011;44310;48.106;12.008;2023-01-10T02:19:12;4.45;;;1.20;;
58518;SDS011;44310;48.106;12.008;2023-01-10T02:21:58;5.30;;;1.42;;
58518;SDS011;44310;48.106;12.008;2023-01-10T02:27:39;11.20;;;2.63;;
58518;SDS011;44310;48.106;12.008;2023-01-10T02:33:35;8.47;;;2.00;;
58518;SDS011;44310;48.106;12.008;2023-01-10T02:36:15;5.72;;;1.50;;
58518;SDS011;44310;48.106;12.008;2023-01-10T02:41:44;5.88;;;1.38;;
58518;SDS011;44310;48.106;12.008;2023-01-10T02:47:17;5.18;;;1.38;;
58518;SDS011;44310;48.106;12.008;2023-01-10T02:49:48;3.67;;;1.30;;
58518;SDS011;44310;48.106;12.008;2023-01-10T02:52:18;3.90;;;1.20;;
58518;SDS011;44310;48.106;12.008;2023-01-10T02:54:50;3.13;;;1.10;;
58518;SDS011;44310;48.106;12.008;2023-01-10T02:57:40;3.70;;;1.00;;
58518;SDS011;44310;48.106;12.008;2023-01-10T03:00:17;3.30;;;1.10;;
58518;SDS011;44310;48.106;12.008;2023-01-10T03:03:16;2.80;;;0.80;;
58518;SDS011;44310;48.106;12.008;2023-01-10T03:11:14;1.75;;;0.80;;
58518;SDS011;44310;48.106;12.008;2023-01-10T03:13:51;4.78;;;0.95;;
58518;SDS011;44310;48.106;12.008;2023-01-10T03:16:23;3.30;;;1.10;;
58518;SDS011;44310;48.106;12.008;2023-01-10T03:19:02;4.60;;;1.10;;
58518;SDS011;44310;48.106;12.008;2023-01-10T03:21:32;2.87;;;1.00;;
58518;SDS011;44310;48.106;12.008;2023-01-10T03:24:05;2.25;;;0.90;;
58518;SDS011;44310;48.106;12.008;2023-01-10T03:29:20;5.00;;;1.20;;
58518;SDS011;44310;48.106;12.008;2023-01-10T03:31:56;4.50;;;1.45;;
58518;SDS011;44310;48.106;12.008;2023-01-10T03:34:27;6.00;;;2.28;;
58518;SDS011;44310;48.106;12.008;2023-01-10T03:37:07;7.87;;;2.30;;
58518;SDS011;44310;48.106;12.008;2023-01-10T03:39:40;10.20;;;1.83;;
58518;SDS011;44310;48.106;12.008;2023-01-10T03:47:36;9.60;;;2.10;;
58518;SDS011;44310;48.106;12.008;2023-01-10T03:50:12;10.35;;;2.30;;
58518;SDS011;44310;48.106;12.008;2023-01-10T03:52:44;11.00;;;3.00;;
58518;SDS011;44310;48.106;12.008;2023-01-10T03:55:12;9.10;;;2.40;;
58518;SDS011;44310;48.106;12.008;2023-01-10T03:57:42;11.38;;;2.60;;
58518;SDS011;44310;48.106;12.008;2023-01-10T04:00:11;11.40;;;3.00;;
58518;SDS011;44310;48.106;12.008;2023-01-10T04:02:39;9.60;;;2.58;;
58518;SDS011;44310;48.106;12.008;2023-01-10T04:05:06;9.68;;;2.45;;
58518;SDS011;44310;48.106;12.008;2023-01-10T04:07:34;7.38;;;2.13;;
58518;SDS011;44310;48.106;12.008;2023-01-10T04:10:02;10.23;;;2.22;;
58518;SDS011;44310;48.106;12.008;2023-01-10T04:12:31;10.00;;;2.60;;
58518;SDS011;44310;48.106;12.008;2023-01-10T04:14:58;12.23;;;2.90;;
58518;SDS011;44310;48.106;12.008;2023-01-10T04:17:25;8.77;;;2.08;;
58518;SDS011;44310;48.106;12.008;2023-01-10T04:19:52;9.32;;;2.45;;
58518;SDS011;44310;48.106;12.008;2023-01-10T04:22:20;6.30;;;2.10;;
58518;SDS011;44310;48.106;12.008;2023-01-10T04:24:47;7.28;;;1.83;;
58518;SDS011;44310;48.106;12.008;2023-01-10T04:27:17;5.82;;;1.60;;
58518;SDS011;44310;48.106;12.008;2023-01-10T04:29:44;7.10;;;1.65;;
58518;SDS011;44310;48.106;12.008;2023-01-10T04:32:12;5.82;;;1.60;;
58518;SDS011;44310;48.106;12.008;2023-01-10T04:34:39;5.72;;;1.40;;
58518;SDS011;44310;48.106;12.008;2023-01-10T04:37:06;4.68;;;1.40;;
58518;SDS011;44310;48.106;12.008;2023-01-10T04:39:33;4.77;;;1.50;;
58518;SDS011;44310;48.106;12.008;2023-01-10T04:42:00;6.23;;;1.90;;
58518;SDS011;44310;48.106;12.008;2023-01-10T04:44:27;4.05;;;1.52;;
58518;SDS011;44310;48.106;12.008;2023-01-10T04:46:54;5.13;;;1.40;;
58518;SDS011;44310;48.106;12.008;2023-01-10T04:49:21;5.68;;;1.60;;
58518;SDS011;44310;48.106;12.008;2023-01-10T04:51:49;8.02;;;1.50;;
58518;SDS011;44310;48.106;12.008;2023-01-10T04:54:18;3.47;;;1.10;;
58518;SDS011;44310;48.106;12.008;2023-01-10T04:56:46;5.70;;;1.30;;
58518;SDS011;44310;48.106;12.008;2023-01-10T04:59:14;4.35;;;1.27;;
58518;SDS011;44310;48.106;12.008;2023-01-10T05:01:41;8.65;;;1.75;;
58518;SDS011;44310;48.106;12.008;2023-01-10T05:04:08;7.95;;;1.90;;
58518;SDS011;44310;48.106;12.008;2023-01-10T05:06:35;10.13;;;2.67;;
58518;SDS011;44310;48.106;12.008;2023-01-10T05:09:08;6.75;;;1.95;;
58518;SDS011;44310;48.106;12.008;2023-01-10T05:11:35;6.03;;;1.77;;
58518;SDS011;44310;48.106;12.008;2023-01-10T05:14:02;10.95;;;2.08;;
58518;SDS011;44310;48.106;12.008;2023-01-10T05:16:29;9.18;;;2.00;;
58518;SDS011;44310;48.106;12.008;2023-01-10T05:18:57;8.35;;;2.28;;
58518;SDS011;44310;48.106;12.008;2023-01-10T05:21:24;10.90;;;2.63;;
58518;SDS011;44310;48.106;12.008;2023-01-10T05:23:51;7.95;;;2.10;;
58518;SDS011;44310;48.106;12.008;2023-01-10T05:26:19;11.90;;;2.83;;
58518;SDS011;44310;48.106;12.008;2023-01-10T05:28:48;8.50;;;1.70;;
58518;SDS011;44310;48.106;12.008;2023-01-10T05:31:17;21.15;;;4.53;;
58518;SDS011;44310;48.106;12.008;2023-01-10T05:33:46;14.50;;;3.00;;
58518;SDS011;44310;48.106;12.008;2023-01-10T05:36:14;11.73;;;2.30;;
58518;SDS011;44310;48.106;12.008;2023-01-10T05:38:42;14.63;;;3.17;;
58518;SDS011;44310;48.106;12.008;2023-01-10T05:41:09;13.63;;;3.55;;
58518;SDS011;44310;48.106;12.008;2023-01-10T05:43:37;16.02;;;3.70;;
58518;SDS011;44310;48.106;12.008;2023-01-10T05:46:04;8.95;;;2.25;;
58518;SDS011;44310;48.106;12.008;2023-01-10T05:48:31;8.50;;;2.13;;
58518;SDS011;44310;48.106;12.008;2023-01-10T05:50:58;9.80;;;2.00;;
58518;SDS011;44310;48.106;12.008;2023-01-10T05:53:25;5.60;;;1.88;;
58518;SDS011;44310;48.106;12.008;2023-01-10T05:55:53;11.63;;;2.50;;
58518;SDS011;44310;48.106;12.008;2023-01-10T05:58:22;6.30;;;1.58;;
58518;SDS011;44310;48.106;12.008;2023-01-10T06:00:49;4.77;;;1.40;;
58518;SDS011;44310;48.106;12.008;2023-01-10T06:03:17;4.35;;;1.45;;
58518;SDS011;44310;48.106;12.008;2023-01-10T06:05:44;4.43;;;1.10;;
58518;SDS011;44310;48.106;12.008;2023-01-10T06:08:14;5.03;;;1.70;;
58518;SDS011;44310;48.106;12.008;2023-01-10T06:10:42;4.47;;;1.30;;
58518;SDS011;44310;48.106;12.008;2023-01-10T06:13:09;4.67;;;1.30;;
58518;SDS011;44310;48.106;12.008;2023-01-10T06:15:37;5.80;;;1.30;;
58518;SDS011;44310;48.106;12.008;2023-01-10T06:18:05;4.30;;;1.20;;
58518;SDS011;44310;48.106;12.008;2023-01-10T06:20:33;2.78;;;0.85;;
58518;SDS011;44310;48.106;12.008;2023-01-10T06:23:00;3.15;;;1.10;;
58518;SDS011;44310;48.106;12.008;2023-01-10T06:25:30;2.35;;;0.82;;
58518;SDS011;44310;48.106;12.008;2023-01-10T06:27:59;8.20;;;1.77;;
58518;SDS011;44310;48.106;12.008;2023-01-10T06:30:26;5.63;;;1.57;;
58518;SDS011;44310;48.106;12.008;2023-01-10T06:32:58;13.60;;;3.13;;
58518;SDS011;44310;48.106;12.008;2023-01-10T06:35:29;5.88;;;1.50;;
58518;SDS011;44310;48.106;12.008;2023-01-10T06:38:00;5.97;;;1.40;;
58518;SDS011;44310;48.106;12.008;2023-01-10T06:40:28;7.13;;;1.50;;
58518;SDS011;44310;48.106;12.008;2023-01-10T06:42:55;5.63;;;1.48;;
58518;SDS011;44310;48.106;12.008;2023-01-10T06:45:22;6.15;;;1.48;;
58518;SDS011;44310;48.106;12.008;2023-01-10T06:47:49;7.85;;;1.98;;
58518;SDS011;44310;48.106;12.008;2023-01-10T06:50:16;8.43;;;1.80;;
58518;SDS011;44310;48.106;12.008;2023-01-10T06:52:44;4.00;;;1.13;;
58518;SDS011;44310;48.106;12.008;2023-01-10T06:55:11;6.15;;;1.23;;
58518;SDS011;44310;48.106;12.008;2023-01-10T06:57:38;2.83;;;1.20;;
58518;SDS011;44310;48.106;12.008;2023-01-10T07:00:06;4.63;;;1.30;;
58518;SDS011;44310;48.106;12.008;2023-01-10T07:02:34;4.82;;;1.17;;
58518;SDS011;44310;48.106;12.008;2023-01-10T07:05:02;4.73;;;1.37;;
58518;SDS011;44310;48.106;12.008;2023-01-10T07:07:29;7.22;;;1.83;;
58518;SDS011;44310;48.106;12.008;2023-01-10T07:09:56;7.30;;;1.65;;
58518;SDS011;44310;48.106;12.008;2023-01-10T07:12:25;6.38;;;1.70;;
58518;SDS011;44310;48.106;12.008;2023-01-10T07:14:52;8.35;;;1.60;;
58518;SDS011;44310;48.106;12.008;2023-01-10T07:17:19;7.13;;;1.83;;
58518;SDS011;44310;48.106;12.008;2023-01-10T07:19:46;4.40;;;1.40;;
58518;SDS011;44310;48.106;12.008;2023-01-10T07:22:13;5.82;;;1.70;;
58518;SDS011;44310;48.106;12.008;2023-01-10T07:24:41;5.90;;;1.40;;
58518;SDS011;44310;48.106;12.008;2023-01-10T07:27:08;15.48;;;2.60;;
58518;SDS011;44310;48.106;12.008;2023-01-10T07:29:35;3.05;;;1.10;;
58518;SDS011;44310;48.106;12.008;2023-01-10T07:32:02;4.63;;;1.73;;
58518;SDS011;44310;48.106;12.008;2023-01-10T07:34:30;20.05;;;4.20;;
58518;SDS011;44310;48.106;12.008;2023-01-10T07:36:57;11.43;;;3.30;;
58518;SDS011;44310;48.106;12.008;2023-01-10T07:39:24;11.50;;;2.97;;
58518;SDS011;44310;48.106;12.008;2023-01-10T07:41:52;19.87;;;4.37;;
58518;SDS011;44310;48.106;12.008;2023-01-10T07:44:19;50.83;;;6.97;;
58518;SDS011;44310;48.106;12.008;2023-01-10T07:46:46;44.63;;;8.57;;
58518;SDS011;44310;48.106;12.008;2023-01-10T07:49:13;21.50;;;4.65;;
58518;SDS011;44310;48.106;12.008;2023-01-10T07:51:40;20.10;;;4.18;;
58518;SDS011;44310;48.106;12.008;2023-01-10T07:54:07;14.60;;;3.47;;
58518;SDS011;44310;48.106;12.008;2023-01-10T07:56:34;13.07;;;3.17;;
58518;SDS011;44310;48.106;12.008;2023-01-10T07:59:01;12.75;;;2.70;;
58518;SDS011;44310;48.106;12.008;2023-01-10T08:01:28;10.68;;;2.90;;
58518;SDS011;44310;48.106;12.008;2023-01-10T08:03:56;8.30;;;2.10;;
58518;SDS011;44310;48.106;12.008;2023-01-10T08:06:24;14.10;;;2.90;;
58518;SDS011;44310;48.106;12.008;2023-01-10T08:08:51;16.17;;;3.00;;
58518;SDS011;44310;48.106;12.008;2023-01-10T08:11:18;19.33;;;4.00;;
58518;SDS011;44310;48.106;12.008;2023-01-10T08:13:45;9.93;;;2.72;;
58518;SDS011;44310;48.106;12.008;2023-01-10T08:16:12;10.57;;;2.33;;
58518;SDS011;44310;48.106;12.008;2023-01-10T08:18:41;8.27;;;2.20;;
58518;SDS011;44310;48.106;12.008;2023-01-10T08:21:08;10.82;;;2.42;;
58518;SDS011;44310;48.106;12.008;2023-01-10T08:23:36;10.55;;;2.30;;
58518;SDS011;44310;48.106;12.008;2023-01-10T08:26:03;8.48;;;2.50;;
58518;SDS011;44310;48.106;12.008;2023-01-10T08:28:31;7.15;;;2.00;;
58518;SDS011;44310;48.106;12.008;2023-01-10T08:31:03;6.03;;;1.58;;
58518;SDS011;44310;48.106;12.008;2023-01-10T08:33:40;7.27;;;1.83;;
58518;SDS011;44310;48.106;12.008;2023-01-10T08:36:17;7.18;;;1.60;;
58518;SDS011;44310;48.106;12.008;2023-01-10T08:38:45;5.03;;;1.53;;
58518;SDS011;44310;48.106;12.008;2023-01-10T08:41:13;4.28;;;1.50;;
58518;SDS011;44310;48.106;12.008;2023-01-10T08:43:40;7.10;;;1.58;;
58518;SDS011;44310;48.106;12.008;2023-01-10T08:46:07;5.32;;;1.42;;
58518;SDS011;44310;48.106;12.008;2023-01-10T08:48:35;5.25;;;1.30;;
58518;SDS011;44310;48.106;12.008;2023-01-10T08:51:06;6.18;;;1.45;;
58518;SDS011;44310;48.106;12.008;2023-01-10T08:53:34;5.22;;;1.23;;
58518;SDS011;44310;48.106;12.008;2023-01-10T08:56:03;3.28;;;1.17;;
58518;SDS011;44310;48.106;12.008;2023-01-10T08:58:31;3.95;;;1.17;;
58518;SDS011;44310;48.106;12.008;2023-01-10T09:00:58;3.88;;;1.25;;
58518;SDS011;44310;48.106;12.008;2023-01-10T09:03:29;4.28;;;1.20;;
58518;SDS011;44310;48.106;12.008;2023-01-10T09:06:00;4.88;;;1.17;;
58518;SDS011;44310;48.106;12.008;2023-01-10T09:08:28;4.50;;;1.20;;
58518;SDS011;44310;48.106;12.008;2023-01-10T09:10:57;2.42;;;0.95;;
58518;SDS011;44310;48.106;12.008;2023-01-10T09:13:26;7.07;;;1.48;;
58518;SDS011;44310;48.106;12.008;2023-01-10T09:15:54;4.60;;;1.30;;
58518;SDS011;44310;48.106;12.008;2023-01-10T09:18:22;7.10;;;1.60;;
58518;SDS011;44310;48.106;12.008;2023-01-10T09:20:50;9.90;;;2.30;;
58518;SDS011;44310;48.106;12.008;2023-01-10T09:23:18;7.22;;;1.70;;
58518;SDS011;44310;48.106;12.008;2023-01-10T09:25:51;13.30;;;2.43;;
58518;SDS011;44310;48.106;12.008;2023-01-10T09:28:20;4.28;;;1.38;;
58518;SDS011;44310;48.106;12.008;2023-01-10T09:30:47;4.57;;;1.05;;
58518;SDS011;44310;48.106;12.008;2023-01-10T09:33:14;6.32;;;1.95;;
58518;SDS011;44310;48.106;12.008;2023-01-10T09:35:42;18.38;;;3.42;;
58518;SDS011;44310;48.106;12.008;2023-01-10T09:38:10;7.70;;;1.92;;
58518;SDS011;44310;48.106;12.008;2023-01-10T09:43:44;11.68;;;3.00;;
58518;SDS011;44310;48.106;12.008;2023-01-10T09:46:30;17.50;;;4.53;;
58518;SDS011;44310;48.106;12.008;2023-01-10T09:51:43;8.55;;;2.30;;
58518;SDS011;44310;48.106;12.008;2023-01-10T09:54:31;9.30;;;2.47;;
58518;SDS011;44310;48.106;12.008;2023-01-10T09:57:01;23.67;;;5.05;;
58518;SDS011;44310;48.106;12.008;2023-01-10T09:59:36;16.20;;;3.37;;
58518;SDS011;44310;48.106;12.008;2023-01-10T10:04:59;8.55;;;2.15;;
58518;SDS011;44310;48.106;12.008;2023-01-10T10:07:30;10.35;;;2.80;;
58518;SDS011;44310;48.106;12.008;2023-01-10T10:09:57;5.63;;;1.30;;
58518;SDS011;44310;48.106;12.008;2023-01-10T10:12:46;3.83;;;1.00;;
58518;SDS011;44310;48.106;12.008;2023-01-10T10:20:47;5.93;;;1.70;;
58518;SDS011;44310;48.106;12.008;2023-01-10T10:23:45;7.15;;;1.60;;
58518;SDS011;44310;48.106;12.008;2023-01-10T10:26:34;6.50;;;1.40;;
58518;SDS011;44310;48.106;12.008;2023-01-10T10:29:09;5.20;;;1.10;;
58518;SDS011;44310;48.106;12.008;2023-01-10T10:31:47;4.43;;;0.93;;
58518;SDS011;44310;48.106;12.008;2023-01-10T10:34:29;6.57;;;1.42;;
58518;SDS011;44310;48.106;12.008;2023-01-10T10:40:00;3.00;;;1.10;;
58518;SDS011;44310;48.106;12.008;2023-01-10T10:42:48;2.13;;;0.70;;
58518;SDS011;44310;48.106;12.008;2023-01-10T10:48:04;9.00;;;2.63;;
58518;SDS011;44310;48.106;12.008;2023-01-10T10:50:37;5.07;;;1.60;;
58518;SDS011;44310;48.106;12.008;2023-01-10T10:53:17;8.52;;;1.77;;
58518;SDS011;44310;48.106;12.008;2023-01-10T10:55:44;13.27;;;2.78;;
58518;SDS011;44310;48.106;12.008;2023-01-10T10:58:12;12.30;;;2.65;;
58518;SDS011;44310;48.106;12.008;2023-01-10T11:00:40;17.13;;;3.75;;
58518;SDS011;44310;48.106;12.008;2023-01-10T11:06:14;7.82;;;1.80;;
58518;SDS011;44310;48.106;12.008;2023-01-10T11:08:43;9.88;;;2.17;;
58518;SDS011;44310;48.106;12.008;2023-01-10T11:13:54;10.15;;;2.15;;
58518;SDS011;44310;48.106;12.008;2023-01-10T11:19:21;8.98;;;1.98;;
58518;SDS011;44310;48.106;12.008;2023-01-10T11:21:59;8.95;;;2.17;;
58518;SDS011;44310;48.106;12.008;2023-01-10T11:24:32;5.20;;;1.42;;
58518;SDS011;44310;48.106;12.008;2023-01-10T11:27:04;3.97;;;1.40;;
58518;SDS011;44310;48.106;12.008;2023-01-10T11:29:43;3.92;;;1.08;;
58518;SDS011;44310;48.106;12.008;2023-01-10T11:32:16;2.17;;;1.00;;
58518;SDS011;44310;48.106;12.008;2023-01-10T11:34:49;1.67;;;0.90;;
58518;SDS011;44310;48.106;12.008;2023-01-10T11:37:20;3.55;;;0.90;;
58518;SDS011;44310;48.106;12.008;2023-01-10T11:42:44;3.83;;;1.10;;
58518;SDS011;44310;48.106;12.008;2023-01-10T11:47:45;2.40;;;0.80;;
58518;SDS011;44310;48.106;12.008;2023-01-10T11:50:34;1.80;;;0.70;;
58518;SDS011;44310;48.106;12.008;2023-01-10T11:53:29;1.23;;;0.70;;
58518;SDS011;44310;48.106;12.008;2023-01-10T11:55:58;1.40;;;0.60;;
58518;SDS011;44310;48.106;12.008;2023-01-10T11:58:28;0.87;;;0.60;;
58518;SDS011;44310;48.106;12.008;2023-01-10T12:01:01;0.90;;;0.50;;
58518;SDS011;44310;48.106;12.008;2023-01-10T12:03:32;1.40;;;0.50;;
58518;SDS011;44310;48.106;12.008;2023-01-10T12:06:06;1.42;;;0.40;;
58518;SDS011;44310;48.106;12.008;2023-01-10T12:08:41;0.88;;;0.50;;
58518;SDS011;44310;48.106;12.008;2023-01-10T12:16:15;2.00;;;0.60;;
58518;SDS011;44310;48.106;12.008;2023-01-10T12:18:43;0.67;;;0.50;;
58518;SDS011;44310;48.106;12.008;2023-01-10T12:21:12;3.88;;;0.98;;
58518;SDS011;44310;48.106;12.008;2023-01-10T12:23:42;1.77;;;0.68;;
58518;SDS011;44310;48.106;12.008;2023-01-10T12:26:12;2.00;;;0.80;;
58518;SDS011;44310;48.106;12.008;2023-01-10T12:28:45;1.90;;;0.52;;
58518;SDS011;44310;48.106;12.008;2023-01-10T12:31:20;3.00;;;0.60;;
58518;SDS011;44310;48.106;12.008;2023-01-10T12:33:55;0.77;;;0.40;;
58518;SDS011;44310;48.106;12.008;2023-01-10T12:36:35;0.75;;;0.43;;
58518;SDS011;44310;48.106;12.008;2023-01-10T12:39:14;1.17;;;0.60;;
58518;SDS011;44310;48.106;12.008;2023-01-10T12:45:02;13.80;;;3.40;;
58518;SDS011;44310;48.106;12.008;2023-01-10T12:50:19;8.13;;;2.55;;
58518;SDS011;44310;48.106;12.008;2023-01-10T12:55:46;6.50;;;1.80;;
58518;SDS011;44310;48.106;12.008;2023-01-10T12:58:18;6.83;;;1.60;;
58518;SDS011;44310;48.106;12.008;2023-01-10T13:00:49;6.75;;;1.30;;
58518;SDS011;44310;48.106;12.008;2023-01-10T13:03:19;6.25;;;1.15;;
58518;SDS011;44310;48.106;12.008;2023-01-10T13:05:50;8.20;;;1.77;;
58518;SDS011;44310;48.106;12.008;2023-01-10T13:08:22;5.35;;;1.27;;
58518;SDS011;44310;48.106;12.008;2023-01-10T13:10:52;12.82;;;2.70;;
58518;SDS011;44310;48.106;12.008;2023-01-10T13:21:38;7.40;;;1.50;;
58518;SDS011;44310;48.106;12.008;2023-01-10T13:24:21;8.23;;;1.52;;
58518;SDS011;44310;48.106;12.008;2023-01-10T13:27:00;13.57;;;2.70;;
58518;SDS011;44310;48.106;12.008;2023-01-10T13:29:29;7.38;;;1.90;;
58518;SDS011;44310;48.106;12.008;2023-01-10T13:32:14;8.57;;;2.20;;
58518;SDS011;44310;48.106;12.008;2023-01-10T13:34:55;7.32;;;1.70;;
58518;SDS011;44310;48.106;12.008;2023-01-10T13:37:43;5.88;;;1.27;;
58518;SDS011;44310;48.106;12.008;2023-01-10T13:40:25;6.20;;;1.42;;
58518;SDS011;44310;48.106;12.008;2023-01-10T13:48:40;38.97;;;7.73;;
58518;SDS011;44310;48.106;12.008;2023-01-10T13:51:29;37.30;;;7.35;;
58518;SDS011;44310;48.106;12.008;2023-01-10T13:54:01;77.07;;;15.05;;
58518;SDS011;44310;48.106;12.008;2023-01-10T13:56:31;69.37;;;13.50;;
58518;SDS011;44310;48.106;12.008;2023-01-10T13:59:10;61.58;;;12.40;;
58518;SDS011;44310;48.106;12.008;2023-01-10T14:01:43;78.65;;;14.63;;
58518;SDS011;44310;48.106;12.008;2023-01-10T14:04:36;56.43;;;10.70;;
58518;SDS011;44310;48.106;12.008;2023-01-10T14:10:09;58.58;;;12.23;;
58518;SDS011;44310;48.106;12.008;2023-01-10T14:12:47;44.42;;;9.90;;
58518;SDS011;44310;48.106;12.008;2023-01-10T14:15:25;27.00;;;6.85;;
58518;SDS011;44310;48.106;12.008;2023-01-10T14:18:01;31.83;;;7.33;;
58518;SDS011;44310;48.106;12.008;2023-01-10T14:20:34;47.27;;;8.40;;
58518;SDS011;44310;48.106;12.008;2023-01-10T14:23:03;21.05;;;4.93;;
58518;SDS011;44310;48.106;12.008;2023-01-10T14:25:34;28.77;;;6.30;;
58518;SDS011;44310;48.106;12.008;2023-01-10T14:28:03;36.78;;;8.90;;
58518;SDS011;44310;48.106;12.008;2023-01-10T14:30:40;36.35;;;7.43;;
58518;SDS011;44310;48.106;12.008;2023-01-10T14:33:15;34.03;;;8.30;;
58518;SDS011;44310;48.106;12.008;2023-01-10T14:35:46;52.10;;;10.27;;
58518;SDS011;44310;48.106;12.008;2023-01-10T14:38:17;45.83;;;9.68;;
58518;SDS011;44310;48.106;12.008;2023-01-10T14:40:50;25.10;;;6.00;;
58518;SDS011;44310;48.106;12.008;2023-01-10T14:43:24;75.70;;;14.70;;
58518;SDS011;44310;48.106;12.008;2023-01-10T14:45:58;56.22;;;11.75;;
58518;SDS011;44310;48.106;12.008;2023-01-10T14:48:34;42.40;;;9.55;;
58518;SDS011;44310;48.106;12.008;2023-01-10T14:54:00;32.93;;;7.50;;
58518;SDS011;44310;48.106;12.008;2023-01-10T14:59:14;24.93;;;5.03;;
58518;SDS011;44310;48.106;12.008;2023-01-10T15:01:43;25.92;;;5.93;;
58518;SDS011;44310;48.106;12.008;2023-01-10T15:04:17;23.10;;;5.55;;
58518;SDS011;44310;48.106;12.008;2023-01-10T15:06:49;20.58;;;5.03;;
58518;SDS011;44310;48.106;12.008;2023-01-10T15:09:21;19.08;;;4.55;;
58518;SDS011;44310;48.106;12.008;2023-01-10T15:11:48;18.73;;;4.40;;
58518;SDS011;44310;48.106;12.008;2023-01-10T15:14:17;17.08;;;4.30;;
58518;SDS011;44310;48.106;12.008;2023-01-10T15:16:49;18.55;;;4.18;;
58518;SDS011;44310;48.106;12.008;2023-01-10T15:19:18;15.87;;;3.50;;
58518;SDS011;44310;48.106;12.008;2023-01-10T15:21:48;17.05;;;4.38;;
58518;SDS011;44310;48.106;12.008;2023-01-10T15:27:00;14.30;;;3.53;;
58518;SDS011;44310;48.106;12.008;2023-01-10T15:29:29;14.27;;;3.38;;
58518;SDS011;44310;48.106;12.008;2023-01-10T15:32:08;17.73;;;4.32;;
58518;SDS011;44310;48.106;12.008;2023-01-10T15:34:37;17.73;;;4.10;;
58518;SDS011;44310;48.106;12.008;2023-01-10T15:37:05;16.00;;;3.50;;
58518;SDS011;44310;48.106;12.008;2023-01-10T15:39:42;13.77;;;3.45;;
58518;SDS011;44310;48.106;12.008;2023-01-10T15:42:12;13.32;;;3.20;;
58518;SDS011;44310;48.106;12.008;2023-01-10T15:44:43;13.73;;;3.40;;
58518;SDS011;44310;48.106;12.008;2023-01-10T15:47:29;10.73;;;3.00;;
58518;SDS011;44310;48.106;12.008;2023-01-10T15:52:52;10.70;;;2.80;;
58518;SDS011;44310;48.106;12.008;2023-01-10T15:55:34;7.20;;;2.50;;
58518;SDS011;44310;48.106;12.008;2023-01-10T15:58:03;11.55;;;2.83;;
58518;SDS011;44310;48.106;12.008;2023-01-10T16:00:31;10.97;;;2.80;;
58518;SDS011;44310;48.106;12.008;2023-01-10T16:02:59;7.93;;;2.00;;
58518;SDS011;44310;48.106;12.008;2023-01-10T16:05:26;6.97;;;2.23;;
58518;SDS011;44310;48.106;12.008;2023-01-10T16:07:54;8.80;;;2.20;;
58518;SDS011;44310;48.106;12.008;2023-01-10T16:10:25;6.68;;;1.92;;
58518;SDS011;44310;48.106;12.008;2023-01-10T16:12:53;7.00;;;1.83;;
58518;SDS011;44310;48.106;12.008;2023-01-10T16:15:57;7.57;;;1.95;;
58518;SDS011;44310;48.106;12.008;2023-01-10T16:18:25;5.00;;;1.50;;
58518;SDS011;44310;48.106;12.008;2023-01-10T16:20:56;3.10;;;1.20;;
58518;SDS011;44310;48.106;12.008;2023-01-10T16:23:27;6.18;;;1.60;;
58518;SDS011;44310;48.106;12.008;2023-01-10T16:25:58;4.53;;;1.42;;
58518;SDS011;44310;48.106;12.008;2023-01-10T16:28:26;4.47;;;1.30;;
58518;SDS011;44310;48.106;12.008;2023-01-10T16:30:56;4.30;;;1.20;;
58518;SDS011;44310;48.106;12.008;2023-01-10T16:33:24;3.75;;;1.27;;
58518;SDS011;44310;48.106;12.008;2023-01-10T16:35:57;8.90;;;1.70;;
58518;SDS011;44310;48.106;12.008;2023-01-10T16:38:25;6.72;;;2.03;;
58518;SDS011;44310;48.106;12.008;2023-01-10T16:43:48;5.95;;;1.80;;